createdAt,value
2023-03-05T00:01:05.465Z,18.28
2023-03-05T00:03:33.263Z,18.27
2023-03-05T00:06:01.136Z,18.24
2023-03-05T00:08:29.045Z,18.22
2023-03-05T00:10:56.802Z,18.27
2023-03-05T00:13:24.607Z,18.23
2023-03-05T00:15:52.463Z,18.27
2023-03-05T00:18:20.297Z,18.34
2023-03-05T00:20:48.212Z,18.37
2023-03-05T00:23:16.006Z,18.36
2023-03-05T00:25:44.350Z,18.38
2023-03-05T00:28:12.109Z,18.37
2023-03-05T00:30:39.909Z,18.35
2023-03-05T00:33:07.684Z,18.29
2023-03-05T00:35:36.135Z,18.31
2023-03-05T00:38:04.023Z,18.28
2023-03-05T00:40:31.966Z,18.28
2023-03-05T00:42:59.728Z,18.26
2023-03-05T00:45:27.512Z,18.25
2023-03-05T00:47:55.374Z,18.22
2023-03-05T00:50:23.179Z,18.23
2023-03-05T00:52:51.093Z,18.24
2023-03-05T00:55:18.827Z,18.20
2023-03-05T00:57:46.817Z,18.19
2023-03-05T01:00:14.575Z,18.20
2023-03-05T01:02:42.434Z,18.19
2023-03-05T01:05:10.252Z,18.19
2023-03-05T01:07:38.044Z,18.12
2023-03-05T01:10:05.852Z,18.08
2023-03-05T01:12:33.741Z,18.08
2023-03-05T01:15:01.470Z,18.10
2023-03-05T01:17:29.259Z,18.13
2023-03-05T01:19:57.025Z,18.14
2023-03-05T01:22:24.878Z,18.13
2023-03-05T01:24:54.559Z,18.13
2023-03-05T01:27:22.266Z,18.16
2023-03-05T01:29:50.009Z,18.18
2023-03-05T01:32:17.840Z,18.15
2023-03-05T01:34:45.600Z,18.17
2023-03-05T01:37:13.372Z,18.17
2023-03-05T01:39:41.185Z,18.17
2023-03-05T01:42:09.153Z,18.09
2023-03-05T01:44:36.900Z,18.08
2023-03-05T01:47:04.638Z,18.13
2023-03-05T01:49:32.430Z,18.19
2023-03-05T01:52:00.212Z,18.14
2023-03-05T01:54:28.059Z,18.13
2023-03-05T01:56:55.855Z,18.11
2023-03-05T01:59:23.623Z,18.11
2023-03-05T02:01:51.437Z,18.07
2023-03-05T02:04:19.930Z,18.07
2023-03-05T02:06:47.727Z,18.05
2023-03-05T02:09:15.491Z,18.07
2023-03-05T02:11:43.293Z,18.04
2023-03-05T02:14:11.020Z,18.10
2023-03-05T02:16:39.029Z,18.11
2023-03-05T02:19:07.007Z,18.10
2023-03-05T02:21:34.780Z,18.11
2023-03-05T02:24:02.507Z,18.10
2023-03-05T02:26:30.584Z,18.12
2023-03-05T02:28:59.480Z,18.10
2023-03-05T02:31:27.329Z,18.07
2023-03-05T02:33:55.936Z,18.09
2023-03-05T02:36:23.641Z,18.11
2023-03-05T02:38:52.991Z,18.08
2023-03-05T02:41:22.810Z,18.18
2023-03-05T02:43:50.682Z,18.12
2023-03-05T02:46:18.677Z,18.08
2023-03-05T02:48:46.449Z,18.09
2023-03-05T02:51:14.247Z,18.09
2023-03-05T02:53:42.046Z,18.04
2023-03-05T02:56:09.847Z,18.07
2023-03-05T02:58:37.746Z,18.05
2023-03-05T03:01:05.518Z,18.06
2023-03-05T03:03:33.510Z,18.07
2023-03-05T03:06:01.358Z,18.07
2023-03-05T03:08:29.303Z,18.06
2023-03-05T03:10:57.349Z,18.10
2023-03-05T03:13:25.399Z,18.06
2023-03-05T03:15:53.229Z,18.06
2023-03-05T03:18:21.066Z,18.07
2023-03-05T03:20:49.603Z,18.06
2023-03-05T03:23:17.358Z,18.05
2023-03-05T03:25:45.111Z,18.04
2023-03-05T03:28:13.046Z,18.02
2023-03-05T03:30:40.855Z,18.03
2023-03-05T03:33:08.805Z,18.04
2023-03-05T03:35:36.678Z,18.03
2023-03-05T03:38:05.089Z,17.93
2023-03-05T03:40:32.911Z,17.97
2023-03-05T03:43:00.710Z,17.99
2023-03-05T03:45:28.468Z,18.02
2023-03-05T03:47:56.226Z,18.00
2023-03-05T03:50:24.974Z,17.94
2023-03-05T03:52:52.834Z,17.97
2023-03-05T03:55:20.591Z,17.98
2023-03-05T03:57:48.653Z,17.98
2023-03-05T04:00:16.577Z,17.97
2023-03-05T04:02:44.460Z,18.00
2023-03-05T04:05:12.410Z,17.93
2023-03-05T04:07:40.240Z,18.00
2023-03-05T04:10:08.048Z,17.99
2023-03-05T04:12:35.873Z,18.00
2023-03-05T04:15:03.688Z,18.00
2023-03-05T04:17:31.497Z,17.99
2023-03-05T04:19:59.355Z,17.99
2023-03-05T04:22:27.341Z,17.93
2023-03-05T04:24:55.118Z,17.95
2023-03-05T04:27:22.875Z,17.95
2023-03-05T04:29:50.821Z,17.93
2023-03-05T04:32:23.274Z,17.96
2023-03-05T04:34:51.082Z,17.93
2023-03-05T04:37:18.843Z,17.92
2023-03-05T04:39:46.592Z,17.91
2023-03-05T04:42:14.454Z,17.90
2023-03-05T04:44:42.330Z,17.92
2023-03-05T04:47:10.162Z,17.88
2023-03-05T04:49:37.922Z,17.88
2023-03-05T04:52:05.886Z,17.93
2023-03-05T04:54:33.717Z,17.92
2023-03-05T04:57:02.511Z,17.89
2023-03-05T04:59:30.481Z,17.93
2023-03-05T05:01:58.350Z,17.86
2023-03-05T05:04:26.314Z,17.85
2023-03-05T05:06:54.161Z,17.89
2023-03-05T05:09:22.001Z,17.88
2023-03-05T05:11:49.776Z,17.91
2023-03-05T05:14:17.642Z,17.89
2023-03-05T05:16:45.394Z,17.89
2023-03-05T05:19:13.203Z,17.89
2023-03-05T05:21:41.019Z,17.89
2023-03-05T05:24:08.926Z,17.91
2023-03-05T05:26:36.669Z,17.91
2023-03-05T05:29:04.526Z,17.86
2023-03-05T05:31:32.402Z,17.91
2023-03-05T05:34:00.247Z,17.98
2023-03-05T05:36:28.012Z,18.13
2023-03-05T05:38:55.720Z,18.31
2023-03-05T05:41:23.462Z,18.48
2023-03-05T05:43:51.253Z,18.63
2023-03-05T05:46:19.056Z,18.68
2023-03-05T05:48:46.877Z,18.76
2023-03-05T05:51:14.927Z,18.82
2023-03-05T05:53:42.699Z,18.89
2023-03-05T05:56:10.570Z,18.94
2023-03-05T05:58:38.265Z,18.95
2023-03-05T06:01:06.022Z,18.96
2023-03-05T06:03:33.841Z,18.96
2023-03-05T06:06:01.937Z,18.95
2023-03-05T06:08:29.701Z,18.93
2023-03-05T06:10:57.502Z,19.04
2023-03-05T06:13:25.405Z,19.32
2023-03-05T06:15:53.130Z,19.89
2023-03-05T06:18:20.874Z,20.39
2023-03-05T06:20:48.622Z,20.72
2023-03-05T06:23:16.448Z,20.95
2023-03-05T06:25:44.213Z,21.11
2023-03-05T06:28:11.959Z,21.28
2023-03-05T06:30:39.738Z,21.38
2023-03-05T06:33:07.716Z,21.35
2023-03-05T06:35:35.525Z,21.30
2023-03-05T06:38:03.554Z,21.20
2023-03-05T06:40:31.726Z,21.17
2023-03-05T06:42:59.481Z,21.09
2023-03-05T06:45:27.253Z,20.99
2023-03-05T06:47:54.991Z,20.86
2023-03-05T06:50:22.761Z,20.77
2023-03-05T06:52:50.486Z,20.69
2023-03-05T06:55:18.859Z,20.59
2023-03-05T06:57:46.664Z,20.48
2023-03-05T07:00:14.440Z,20.40
2023-03-05T07:02:42.209Z,20.29
2023-03-05T07:05:09.967Z,20.15
2023-03-05T07:07:38.169Z,20.09
2023-03-05T07:10:08.967Z,20.04
2023-03-05T07:12:38.761Z,19.89
2023-03-05T07:15:06.621Z,19.79
2023-03-05T07:17:34.359Z,19.69
2023-03-05T07:20:02.189Z,19.59
2023-03-05T07:22:29.950Z,19.50
2023-03-05T07:24:57.673Z,19.48
2023-03-05T07:27:25.627Z,19.45
2023-03-05T07:29:53.362Z,19.39
2023-03-05T07:32:21.121Z,19.37
2023-03-05T07:34:48.875Z,19.36
2023-03-05T07:37:16.705Z,19.38
2023-03-05T07:39:46.889Z,19.35
2023-03-05T07:42:14.995Z,19.68
2023-03-05T07:44:42.781Z,19.74
2023-03-05T07:47:10.521Z,19.72
2023-03-05T07:49:39.746Z,19.67
2023-03-05T07:52:07.497Z,19.50
2023-03-05T07:54:37.629Z,19.49
2023-03-05T07:57:05.673Z,19.37
2023-03-05T07:59:33.427Z,19.34
2023-03-05T08:02:01.247Z,19.37
2023-03-05T08:04:31.875Z,19.35
2023-03-05T08:06:59.842Z,19.43
2023-03-05T08:09:27.694Z,19.49
2023-03-05T08:11:55.485Z,19.54
2023-03-05T08:14:23.258Z,19.32
2023-03-05T08:16:52.250Z,19.32
2023-03-05T08:19:20.371Z,19.46
2023-03-05T08:21:48.327Z,19.68
2023-03-05T08:24:16.082Z,19.87
2023-03-05T08:26:43.916Z,20.04
2023-03-05T08:29:14.507Z,20.09
2023-03-05T08:31:42.304Z,20.10
2023-03-05T08:34:10.040Z,20.19
2023-03-05T08:36:37.811Z,20.22
2023-03-05T08:39:08.608Z,20.19
2023-03-05T08:41:36.309Z,20.10
2023-03-05T08:44:04.105Z,20.02
2023-03-05T08:46:31.889Z,20.02
2023-03-05T08:48:59.654Z,19.96
2023-03-05T08:51:27.518Z,19.87
2023-03-05T08:53:55.473Z,19.86
2023-03-05T08:56:23.218Z,19.80
2023-03-05T08:58:52.477Z,19.78
2023-03-05T09:01:20.374Z,19.74
2023-03-05T09:03:48.223Z,19.69
2023-03-05T09:06:15.989Z,19.63
2023-03-05T09:08:43.858Z,19.57
2023-03-05T09:11:11.610Z,19.58
2023-03-05T09:13:39.429Z,19.60
2023-03-05T09:16:07.282Z,19.59
2023-03-05T09:18:36.917Z,19.62
2023-03-05T09:21:04.780Z,19.75
2023-03-05T09:23:32.568Z,19.89
2023-03-05T09:26:03.550Z,19.80
2023-03-05T09:28:31.275Z,19.77
2023-03-05T09:30:58.983Z,19.64
2023-03-05T09:33:26.847Z,19.59
2023-03-05T09:35:54.648Z,19.51
2023-03-05T09:38:22.412Z,19.46
2023-03-05T09:40:50.442Z,19.38
2023-03-05T09:43:18.204Z,19.37
2023-03-05T09:45:46.039Z,19.32
2023-03-05T09:48:13.934Z,19.25
2023-03-05T09:50:41.658Z,19.18
2023-03-05T09:53:09.510Z,19.19
2023-03-05T09:55:40.292Z,19.14
2023-03-05T09:58:08.111Z,19.16
2023-03-05T10:00:35.877Z,19.17
2023-03-05T10:03:03.760Z,19.29
2023-03-05T10:05:31.533Z,19.28
2023-03-05T10:07:59.307Z,19.21
2023-03-05T10:10:27.043Z,19.17
2023-03-05T10:12:54.818Z,19.17
2023-03-05T10:15:22.613Z,19.14
2023-03-05T10:17:50.361Z,19.12
2023-03-05T10:20:18.099Z,19.14
2023-03-05T10:22:45.937Z,19.15
2023-03-05T10:25:13.694Z,19.13
2023-03-05T10:27:41.836Z,19.15
2023-03-05T10:30:09.555Z,19.10
2023-03-05T10:32:37.324Z,19.12
2023-03-05T10:35:05.189Z,19.12
2023-03-05T10:37:34.717Z,19.07
2023-03-05T10:40:02.721Z,19.07
2023-03-05T10:42:31.364Z,19.03
2023-03-05T10:44:59.212Z,19.01
2023-03-05T10:47:27.954Z,18.99
2023-03-05T10:49:55.676Z,19.03
2023-03-05T10:52:23.516Z,19.04
2023-03-05T10:54:51.376Z,19.04
2023-03-05T10:57:19.219Z,19.05
2023-03-05T10:59:47.008Z,19.07
2023-03-05T11:02:14.815Z,19.11
2023-03-05T11:04:42.680Z,19.11
2023-03-05T11:07:13.263Z,19.12
2023-03-05T11:09:41.334Z,19.12
2023-03-05T11:12:10.257Z,19.17
2023-03-05T11:14:38.840Z,19.20
2023-03-05T11:17:06.561Z,19.21
2023-03-05T11:19:34.950Z,19.20
2023-03-05T11:22:02.681Z,19.16
2023-03-05T11:24:30.487Z,19.17
2023-03-05T11:26:59.529Z,19.17
2023-03-05T11:29:27.372Z,19.14
2023-03-05T11:31:55.742Z,19.11
2023-03-05T11:34:23.966Z,19.04
2023-03-05T11:36:52.057Z,19.05
2023-03-05T11:39:19.867Z,19.09
2023-03-05T11:41:47.656Z,19.11
2023-03-05T11:44:15.945Z,19.12
2023-03-05T11:46:43.644Z,19.12
2023-03-05T11:49:11.439Z,19.14
2023-03-05T11:51:39.266Z,19.14
2023-03-05T11:54:07.245Z,19.15
2023-03-05T11:56:34.967Z,19.19
2023-03-05T11:59:02.843Z,19.23
2023-03-05T12:01:30.696Z,19.25
2023-03-05T12:04:00.175Z,19.25
2023-03-05T12:06:28.104Z,19.25
2023-03-05T12:08:55.906Z,19.24
2023-03-05T12:11:25.705Z,19.24
2023-03-05T12:13:53.962Z,19.23
2023-03-05T12:16:24.398Z,19.22
2023-03-05T12:18:52.290Z,19.22
2023-03-05T12:21:20.115Z,19.20
2023-03-05T12:23:47.891Z,19.16
2023-03-05T12:26:15.688Z,19.14
2023-03-05T12:28:43.435Z,19.13
2023-03-05T12:31:11.734Z,19.10
2023-03-05T12:33:39.594Z,19.11
2023-03-05T12:36:08.675Z,19.09
2023-03-05T12:38:38.076Z,19.08
2023-03-05T12:41:05.854Z,19.06
2023-03-05T12:43:33.738Z,19.04
2023-03-05T12:46:02.851Z,19.08
2023-03-05T12:48:30.679Z,19.35
2023-03-05T12:50:58.625Z,19.92
2023-03-05T12:53:26.393Z,20.36
2023-03-05T12:55:54.358Z,20.66
2023-03-05T12:58:22.149Z,20.93
2023-03-05T13:00:50.550Z,21.23
2023-03-05T13:03:18.762Z,21.41
2023-03-05T13:05:46.526Z,21.56
2023-03-05T13:08:16.156Z,21.76
2023-03-05T13:10:44.478Z,21.85
2023-03-05T13:13:13.962Z,21.93
2023-03-05T13:15:41.967Z,21.93
2023-03-05T13:18:09.766Z,21.92
2023-03-05T13:20:38.453Z,21.84
2023-03-05T13:23:06.199Z,21.71
2023-03-05T13:25:33.961Z,21.51
2023-03-05T13:28:01.811Z,21.33
2023-03-05T13:30:29.617Z,21.15
2023-03-05T13:32:57.385Z,21.04
2023-03-05T13:35:25.342Z,20.93
2023-03-05T13:37:53.181Z,20.79
2023-03-05T13:40:20.956Z,20.71
2023-03-05T13:42:48.753Z,20.59
2023-03-05T13:45:16.952Z,20.52
2023-03-05T13:47:44.783Z,20.41
2023-03-05T13:50:12.753Z,20.35
2023-03-05T13:52:40.620Z,20.29
2023-03-05T13:55:08.390Z,20.21
2023-03-05T13:57:36.177Z,20.09
2023-03-05T14:00:04.097Z,20.00
2023-03-05T14:02:33.391Z,19.89
2023-03-05T14:05:02.054Z,19.82
2023-03-05T14:07:32.328Z,19.76
2023-03-05T14:10:00.812Z,19.78
2023-03-05T14:12:30.381Z,19.73
2023-03-05T14:14:59.702Z,19.71
2023-03-05T14:17:27.633Z,19.69
2023-03-05T14:19:55.402Z,19.73
2023-03-05T14:22:23.187Z,19.88
2023-03-05T14:24:50.956Z,20.05
2023-03-05T14:27:18.677Z,20.05
2023-03-05T14:29:50.257Z,20.01
2023-03-05T14:32:18.060Z,19.82
2023-03-05T14:34:48.040Z,19.90
2023-03-05T14:37:15.862Z,20.11
2023-03-05T14:39:46.249Z,20.42
2023-03-05T14:42:14.457Z,20.61
2023-03-05T14:44:43.611Z,20.72
2023-03-05T14:47:11.302Z,20.68
2023-03-05T14:49:39.043Z,20.64
2023-03-05T14:52:06.884Z,20.57
2023-03-05T14:54:34.624Z,20.46
2023-03-05T14:57:04.804Z,20.37
2023-03-05T14:59:32.537Z,20.28
2023-03-05T15:02:00.302Z,20.21
2023-03-05T15:04:28.174Z,20.10
2023-03-05T15:06:56.304Z,20.05
2023-03-05T15:09:24.084Z,20.03
2023-03-05T15:11:51.846Z,19.95
2023-03-05T15:14:19.606Z,19.85
2023-03-05T15:16:47.813Z,19.82
2023-03-05T15:19:15.593Z,19.77
2023-03-05T15:21:43.486Z,19.74
2023-03-05T15:24:13.049Z,19.66
2023-03-05T15:26:43.251Z,19.64
2023-03-05T15:29:11.003Z,19.64
2023-03-05T15:31:40.598Z,19.62
2023-03-05T15:34:08.456Z,19.62
2023-03-05T15:36:36.206Z,19.81
2023-03-05T15:39:04.039Z,19.88
2023-03-05T15:41:31.876Z,19.78
2023-03-05T15:43:59.684Z,19.61
2023-03-05T15:46:27.560Z,19.50
2023-03-05T15:48:55.617Z,19.57
2023-03-05T15:51:23.423Z,19.44
2023-03-05T15:53:51.349Z,19.38
2023-03-05T15:56:19.255Z,19.26
2023-03-05T15:58:47.000Z,19.23
2023-03-05T16:01:15.657Z,19.20
2023-03-05T16:03:43.521Z,19.17
2023-03-05T16:06:12.452Z,19.11
2023-03-05T16:08:40.248Z,19.15
2023-03-05T16:11:10.098Z,19.21
2023-03-05T16:13:37.875Z,19.19
2023-03-05T16:16:05.709Z,19.27
2023-03-05T16:18:33.522Z,19.15
2023-03-05T16:21:02.202Z,19.36
2023-03-05T16:23:29.964Z,19.73
2023-03-05T16:25:59.580Z,20.03
2023-03-05T16:28:27.611Z,20.32
2023-03-05T16:30:57.644Z,20.55
2023-03-05T16:33:25.609Z,20.71
2023-03-05T16:35:53.425Z,20.77
2023-03-05T16:38:40.025Z,20.83
2023-03-05T16:41:08.855Z,20.82
2023-03-05T16:43:36.836Z,20.73
2023-03-05T16:46:04.624Z,20.65
2023-03-05T16:48:32.440Z,20.52
2023-03-05T16:51:00.216Z,20.44
2023-03-05T16:53:28.162Z,20.33
2023-03-05T16:55:55.887Z,20.28
2023-03-05T16:58:23.861Z,20.23
2023-03-05T17:00:51.740Z,20.12
2023-03-05T17:03:19.919Z,20.06
2023-03-05T17:05:47.823Z,20.03
2023-03-05T17:08:15.586Z,20.00
2023-03-05T17:10:43.472Z,19.95
2023-03-05T17:13:11.311Z,19.91
2023-03-05T17:15:39.157Z,19.87
2023-03-05T17:18:06.941Z,19.80
2023-03-05T17:20:35.687Z,19.75
2023-03-05T17:23:03.652Z,19.70
2023-03-05T17:25:31.438Z,19.66
2023-03-05T17:27:59.176Z,19.62
2023-03-05T17:30:26.956Z,19.58
2023-03-05T17:32:56.963Z,19.56
2023-03-05T17:35:25.044Z,19.51
2023-03-05T17:37:55.281Z,19.63
2023-03-05T17:40:23.159Z,19.76
2023-03-05T17:42:50.981Z,19.69
2023-03-05T17:45:18.870Z,19.55
2023-03-05T17:47:46.684Z,19.34
2023-03-05T17:50:14.571Z,19.37
2023-03-05T17:52:42.460Z,19.41
2023-03-05T17:55:10.792Z,19.33
2023-03-05T17:57:41.367Z,19.30
2023-03-05T18:00:09.379Z,19.17
2023-03-05T18:02:41.725Z,19.09
2023-03-05T18:05:09.559Z,19.08
2023-03-05T18:07:37.513Z,19.10
2023-03-05T18:10:05.262Z,18.97
2023-03-05T18:12:33.020Z,18.92
2023-03-05T18:15:00.747Z,18.95
2023-03-05T18:17:28.540Z,19.03
2023-03-05T18:19:56.677Z,19.17
2023-03-05T18:22:24.476Z,19.62
2023-03-05T18:24:52.299Z,20.08
2023-03-05T18:27:20.077Z,20.33
2023-03-05T18:29:47.949Z,20.47
2023-03-05T18:32:15.937Z,20.58
2023-03-05T18:34:43.704Z,20.69
2023-03-05T18:37:11.518Z,20.72
2023-03-05T18:39:40.430Z,20.70
2023-03-05T18:42:08.215Z,20.66
2023-03-05T18:44:35.960Z,20.58
2023-03-05T18:47:03.841Z,20.46
2023-03-05T18:49:31.630Z,20.37
2023-03-05T18:51:59.482Z,20.26
2023-03-05T18:54:27.237Z,20.17
2023-03-05T18:56:55.016Z,20.16
2023-03-05T18:59:22.862Z,20.16
2023-03-05T19:01:50.877Z,20.14
2023-03-05T19:04:21.230Z,20.09
2023-03-05T19:06:49.046Z,20.01
2023-03-05T19:09:28.845Z,19.99
2023-03-05T19:11:56.586Z,19.85
2023-03-05T19:14:24.333Z,19.79
2023-03-05T19:16:52.095Z,19.72
2023-03-05T19:19:22.646Z,19.66
2023-03-05T19:21:50.383Z,19.63
2023-03-05T19:24:18.304Z,19.63
2023-03-05T19:26:46.037Z,19.59
2023-03-05T19:29:13.826Z,19.56
2023-03-05T19:31:41.573Z,19.54
2023-03-05T19:34:09.564Z,19.59
2023-03-05T19:36:37.439Z,19.80
2023-03-05T19:39:05.623Z,19.79
2023-03-05T19:41:33.471Z,19.68
2023-03-05T19:44:01.354Z,19.54
2023-03-05T19:46:29.593Z,19.40
2023-03-05T19:48:57.401Z,19.30
2023-03-05T19:51:25.351Z,19.23
2023-03-05T19:53:53.048Z,19.20
2023-03-05T19:56:20.968Z,19.22
2023-03-05T19:58:49.720Z,19.19
2023-03-05T20:01:17.501Z,19.23
2023-03-05T20:03:45.328Z,19.16
2023-03-05T20:06:13.118Z,19.14
2023-03-05T20:08:40.853Z,19.13
2023-03-05T20:11:11.212Z,19.09
2023-03-05T20:13:39.265Z,19.02
2023-03-05T20:16:07.043Z,19.00
2023-03-05T20:18:34.956Z,19.01
2023-03-05T20:21:03.537Z,19.01
2023-03-05T20:23:31.914Z,18.98
2023-03-05T20:25:59.727Z,19.01
2023-03-05T20:28:27.604Z,18.98
2023-03-05T20:30:55.598Z,19.02
2023-03-05T20:33:23.526Z,19.01
2023-03-05T20:35:51.356Z,19.00
2023-03-05T20:38:24.983Z,19.04
2023-03-05T20:40:52.980Z,19.02
2023-03-05T20:43:20.739Z,18.98
2023-03-05T20:45:48.546Z,18.95
2023-03-05T20:48:16.533Z,18.93
2023-03-05T20:50:44.244Z,18.83
2023-03-05T20:53:12.010Z,18.87
2023-03-05T20:55:39.749Z,18.92
2023-03-05T20:58:07.566Z,18.93
2023-03-05T21:00:35.397Z,18.98
2023-03-05T21:03:03.145Z,18.99
2023-03-05T21:05:31.414Z,19.05
2023-03-05T21:07:59.208Z,19.07
2023-03-05T21:10:26.916Z,19.06
2023-03-05T21:12:54.837Z,19.00
2023-03-05T21:15:22.927Z,18.96
2023-03-05T21:17:50.823Z,19.00
2023-03-05T21:20:18.686Z,18.98
2023-03-05T21:22:46.750Z,18.96
2023-03-05T21:25:20.953Z,18.89
2023-03-05T21:27:49.527Z,18.92
2023-03-05T21:30:17.258Z,18.94
2023-03-05T21:32:45.068Z,18.89
2023-03-05T21:35:12.989Z,18.83
2023-03-05T21:37:42.573Z,18.78
2023-03-05T21:40:10.349Z,18.83
2023-03-05T21:42:38.117Z,18.88
2023-03-05T21:45:06.222Z,18.81
2023-03-05T21:47:34.045Z,18.90
2023-03-05T21:50:01.959Z,18.85
2023-03-05T21:52:29.690Z,18.85
2023-03-05T21:54:57.448Z,18.84
2023-03-05T21:57:26.455Z,18.85
2023-03-05T21:59:54.229Z,18.87
2023-03-05T22:02:21.959Z,18.86
2023-03-05T22:04:49.703Z,18.82
2023-03-05T22:07:17.540Z,18.80
2023-03-05T22:09:45.499Z,18.78
2023-03-05T22:12:19.117Z,18.72
2023-03-05T22:14:46.868Z,18.74
2023-03-05T22:17:14.611Z,18.68
2023-03-05T22:19:42.375Z,18.70
2023-03-05T22:22:10.062Z,18.65
2023-03-05T22:24:38.486Z,18.69
2023-03-05T22:27:06.220Z,18.68
2023-03-05T22:29:33.985Z,18.70
2023-03-05T22:32:01.865Z,18.68
2023-03-05T22:34:30.012Z,18.71
2023-03-05T22:36:58.048Z,18.76
2023-03-05T22:39:25.756Z,18.74
2023-03-05T22:41:53.476Z,18.74
2023-03-05T22:44:22.038Z,18.75
2023-03-05T22:46:51.399Z,18.75
2023-03-05T22:49:19.120Z,18.74
2023-03-05T22:51:46.889Z,18.77
2023-03-05T22:54:14.742Z,18.77
2023-03-05T22:56:42.497Z,18.77
2023-03-05T22:59:10.388Z,18.75
2023-03-05T23:01:38.108Z,18.73
2023-03-05T23:04:18.222Z,18.67
2023-03-05T23:06:46.010Z,18.63
2023-03-05T23:09:13.728Z,18.63
2023-03-05T23:11:42.061Z,18.64
2023-03-05T23:14:09.834Z,18.63
2023-03-05T23:16:37.693Z,18.53
2023-03-05T23:19:05.572Z,18.53
2023-03-05T23:21:33.362Z,18.56
2023-03-05T23:24:01.210Z,18.62
2023-03-05T23:26:29.006Z,18.58
2023-03-05T23:28:56.854Z,18.54
2023-03-05T23:31:24.849Z,18.50
2023-03-05T23:33:52.649Z,18.44
2023-03-05T23:36:20.522Z,18.44
2023-03-05T23:38:48.351Z,18.43
2023-03-05T23:41:16.138Z,18.42
2023-03-05T23:43:43.999Z,18.45
2023-03-05T23:46:11.833Z,18.49
2023-03-05T23:48:39.627Z,18.52
2023-03-05T23:51:08.507Z,18.43
2023-03-05T23:53:36.290Z,18.42
2023-03-05T23:56:04.051Z,18.37
2023-03-05T23:58:31.799Z,18.46
